createdAt,value
2018-09-05T00:00:09.846Z,18.87
2018-09-05T00:02:39.685Z,18.84
2018-09-05T00:05:10.283Z,18.80
2018-09-05T00:07:40.554Z,18.75
2018-09-05T00:10:10.641Z,18.68
2018-09-05T00:12:40.595Z,18.61
2018-09-05T00:15:10.770Z,18.58
2018-09-05T00:17:40.671Z,18.55
2018-09-05T00:20:10.518Z,18.53
2018-09-05T00:22:40.701Z,18.50
2018-09-05T00:25:10.810Z,18.49
2018-09-05T00:27:40.740Z,18.46
2018-09-05T00:30:10.774Z,18.43
2018-09-05T00:32:41.000Z,18.40
2018-09-05T00:35:11.246Z,18.37
2018-09-05T00:37:41.754Z,18.34
2018-09-05T00:40:12.037Z,18.29
2018-09-05T00:42:41.994Z,18.25
2018-09-05T00:45:11.824Z,18.20
2018-09-05T00:47:41.589Z,18.15
2018-09-05T00:50:11.752Z,18.13
2018-09-05T00:52:41.802Z,18.12
2018-09-05T00:55:11.622Z,18.08
2018-09-05T00:57:41.477Z,18.06
2018-09-05T01:00:11.521Z,18.05
2018-09-05T01:02:41.432Z,18.02
2018-09-05T01:05:11.557Z,17.99
2018-09-05T01:07:41.420Z,17.96
2018-09-05T01:10:11.512Z,17.93
2018-09-05T01:12:41.662Z,17.89
2018-09-05T01:15:11.617Z,17.79
2018-09-05T01:17:41.690Z,17.79
2018-09-05T01:20:11.653Z,17.75
2018-09-05T01:22:41.496Z,17.72
2018-09-05T01:25:11.671Z,17.69
2018-09-05T01:27:41.615Z,17.65
2018-09-05T01:30:11.616Z,17.63
2018-09-05T01:32:42.054Z,17.60
2018-09-05T01:35:11.785Z,17.57
2018-09-05T01:37:41.706Z,17.55
2018-09-05T01:40:11.589Z,17.51
2018-09-05T01:42:41.609Z,17.50
2018-09-05T01:45:11.712Z,17.48
2018-09-05T01:47:43.764Z,17.44
2018-09-05T01:50:13.914Z,17.42
2018-09-05T01:52:43.705Z,17.38
2018-09-05T01:55:13.502Z,17.35
2018-09-05T01:57:43.565Z,17.33
2018-09-05T02:00:17.444Z,17.27
2018-09-05T02:02:47.703Z,17.24
2018-09-05T02:05:17.428Z,17.22
2018-09-05T02:07:47.713Z,17.20
2018-09-05T02:10:17.544Z,17.19
2018-09-05T02:12:47.395Z,17.16
2018-09-05T02:15:17.677Z,17.11
2018-09-05T02:17:47.502Z,17.08
2018-09-05T02:20:18.051Z,17.06
2018-09-05T02:22:48.226Z,17.04
2018-09-05T02:25:18.294Z,17.01
2018-09-05T02:27:48.233Z,16.98
2018-09-05T02:30:18.066Z,16.93
2018-09-05T02:32:48.384Z,16.85
2018-09-05T02:35:18.199Z,16.79
2018-09-05T02:37:48.618Z,16.78
2018-09-05T02:40:18.487Z,16.79
2018-09-05T02:42:48.264Z,16.77
2018-09-05T02:46:09.958Z,16.81
2018-09-05T02:48:40.076Z,16.80
2018-09-05T02:51:09.950Z,16.77
2018-09-05T02:53:39.816Z,16.76
2018-09-05T02:56:09.703Z,16.74
2018-09-05T02:58:40.047Z,16.72
2018-09-05T03:01:09.842Z,16.72
2018-09-05T03:03:39.809Z,16.68
2018-09-05T03:06:09.653Z,16.66
2018-09-05T03:08:39.622Z,16.63
2018-09-05T03:11:09.670Z,16.61
2018-09-05T03:13:39.598Z,16.58
2018-09-05T03:16:09.608Z,16.57
2018-09-05T03:18:40.057Z,16.54
2018-09-05T03:21:09.906Z,16.52
2018-09-05T03:23:40.071Z,16.50
2018-09-05T03:26:09.874Z,16.50
2018-09-05T03:28:39.915Z,16.49
2018-09-05T03:31:09.654Z,16.48
2018-09-05T03:33:39.489Z,16.49
2018-09-05T03:36:09.573Z,16.47
2018-09-05T03:38:39.446Z,16.45
2018-09-05T03:41:09.572Z,16.45
2018-09-05T03:43:39.357Z,16.45
2018-09-05T03:46:09.550Z,16.42
2018-09-05T03:48:39.753Z,16.39
2018-09-05T03:51:12.513Z,16.38
2018-09-05T03:53:42.792Z,16.37
2018-09-05T03:56:12.561Z,16.36
2018-09-05T03:58:42.409Z,16.34
2018-09-05T04:01:13.966Z,16.32
2018-09-05T04:03:43.714Z,16.30
2018-09-05T04:06:17.605Z,16.30
2018-09-05T04:08:47.434Z,16.28
2018-09-05T04:11:17.520Z,16.27
2018-09-05T04:13:47.597Z,16.25
2018-09-05T04:16:17.432Z,16.23
2018-09-05T04:18:47.692Z,16.22
2018-09-05T04:21:17.611Z,16.20
2018-09-05T04:23:49.226Z,16.21
2018-09-05T04:26:20.169Z,16.20
2018-09-05T04:28:50.459Z,16.20
2018-09-05T04:31:20.493Z,16.20
2018-09-05T04:33:50.537Z,16.21
2018-09-05T04:36:20.768Z,16.21
2018-09-05T04:38:50.644Z,16.20
2018-09-05T04:41:20.670Z,16.20
2018-09-05T04:43:50.591Z,16.19
2018-09-05T04:46:20.753Z,16.19
2018-09-05T04:48:50.780Z,16.20
2018-09-05T04:51:20.492Z,16.21
2018-09-05T04:53:54.628Z,16.21
2018-09-05T04:56:24.601Z,16.22
2018-09-05T04:58:55.401Z,16.23
2018-09-05T05:01:25.661Z,16.25
2018-09-05T05:03:55.458Z,16.27
2018-09-05T05:06:25.532Z,16.30
2018-09-05T05:08:55.265Z,16.35
2018-09-05T05:11:25.717Z,16.37
2018-09-05T06:09:59.258Z,17.68
2018-09-05T06:12:28.992Z,17.65
2018-09-05T06:14:59.181Z,17.62
2018-09-05T06:17:29.181Z,17.62
2018-09-05T06:19:59.073Z,17.65
2018-09-05T06:22:29.644Z,17.67
2018-09-05T06:24:59.415Z,17.69
2018-09-05T06:27:29.573Z,17.75
2018-09-05T06:29:59.300Z,17.81
2018-09-05T06:32:29.104Z,17.87
2018-09-05T06:34:59.129Z,17.92
2018-09-05T06:37:29.141Z,18.00
2018-09-05T06:39:59.256Z,18.04
2018-09-05T06:42:29.398Z,18.12
2018-09-05T06:44:59.259Z,18.12
2018-09-05T06:47:29.250Z,18.23
2018-09-05T06:49:59.056Z,18.30
2018-09-05T06:52:29.418Z,18.42
2018-09-05T06:54:59.204Z,18.49
2018-09-05T06:57:29.237Z,18.57
2018-09-05T06:59:59.274Z,18.62
2018-09-05T07:02:29.669Z,18.67
2018-09-05T07:04:59.685Z,18.75
2018-09-05T07:07:29.792Z,18.84
2018-09-05T07:09:59.639Z,18.94
2018-09-05T07:12:29.675Z,19.01
2018-09-05T07:14:59.876Z,19.09
2018-09-05T07:17:30.136Z,19.19
2018-09-05T07:20:00.045Z,19.26
2018-09-05T07:22:32.057Z,19.34
2018-09-05T07:25:02.101Z,19.40
2018-09-05T07:27:32.181Z,19.49
2018-09-05T07:30:02.337Z,19.58
2018-09-05T07:32:32.660Z,19.73
2018-09-05T07:35:02.493Z,19.95
2018-09-05T07:37:32.283Z,20.11
2018-09-05T07:40:02.111Z,20.27
2018-09-05T07:42:32.328Z,20.42
2018-09-05T07:45:02.286Z,20.51
2018-09-05T07:47:32.147Z,20.59
2018-09-05T07:50:02.417Z,20.63
2018-09-05T07:52:32.152Z,20.66
2018-09-05T07:55:02.055Z,20.68
2018-09-05T07:57:32.175Z,20.83
2018-09-05T08:00:02.246Z,20.96
2018-09-05T08:02:32.076Z,21.09
2018-09-05T08:05:02.185Z,21.23
2018-09-05T08:07:32.079Z,21.29
2018-09-05T08:10:02.226Z,21.34
2018-09-05T08:12:32.168Z,21.39
2018-09-05T08:15:02.248Z,21.52
2018-09-05T08:17:32.290Z,21.64
2018-09-05T08:20:02.122Z,21.78
2018-09-05T08:22:32.237Z,21.96
2018-09-05T08:25:02.052Z,22.07
2018-09-05T08:27:32.005Z,22.19
2018-09-05T08:30:02.128Z,22.37
2018-09-05T08:32:32.029Z,22.55
2018-09-05T08:35:02.284Z,22.71
2018-09-05T08:37:32.389Z,22.91
2018-09-05T08:40:02.397Z,23.10
2018-09-05T08:42:34.390Z,23.21
2018-09-05T08:45:04.938Z,23.43
2018-09-05T08:47:35.141Z,23.48
2018-09-05T08:50:05.482Z,23.57
2018-09-05T08:52:35.397Z,23.66
2018-09-05T08:55:05.340Z,23.76
2018-09-05T08:57:35.387Z,23.88
2018-09-05T09:00:05.673Z,24.01
2018-09-05T09:02:35.456Z,24.18
2018-09-05T09:05:05.638Z,24.39
2018-09-05T09:07:35.818Z,24.56
2018-09-05T09:10:06.812Z,24.64
2018-09-05T09:12:36.723Z,24.79
2018-09-05T09:15:07.080Z,24.92
2018-09-05T09:17:37.179Z,24.98
2018-09-05T09:20:07.198Z,25.17
2018-09-05T09:22:37.386Z,25.28
2018-09-05T09:25:07.230Z,25.35
2018-09-05T09:27:37.282Z,25.47
2018-09-05T09:30:07.436Z,25.56
2018-09-05T09:32:37.438Z,25.80
2018-09-05T09:35:07.561Z,25.84
2018-09-05T09:37:37.760Z,26.02
2018-09-05T09:40:07.916Z,25.76
2018-09-05T09:42:38.174Z,25.57
2018-09-05T09:45:08.771Z,25.51
2018-09-05T09:47:39.038Z,25.80
2018-09-05T09:50:08.935Z,25.73
2018-09-05T09:52:39.480Z,26.00
2018-09-05T09:55:10.005Z,26.29
2018-09-05T09:57:39.832Z,26.70
2018-09-05T10:00:10.247Z,26.63
2018-09-05T10:02:44.872Z,26.53
2018-09-05T10:05:19.836Z,26.30
2018-09-05T10:07:55.033Z,25.71
2018-09-05T10:10:30.356Z,25.67
2018-09-05T10:13:05.261Z,25.42
2018-09-05T10:16:40.768Z,25.54
2018-09-05T10:19:12.073Z,25.42
2018-09-05T10:21:42.051Z,25.61
2018-09-05T10:24:12.818Z,25.93
2018-09-05T10:26:42.561Z,26.15
2018-09-05T10:29:12.337Z,26.46
2018-09-05T10:31:42.189Z,26.68
2018-09-05T10:34:12.222Z,26.93
2018-09-05T10:36:42.413Z,26.62
2018-09-05T10:39:12.452Z,26.52
2018-09-05T10:41:42.566Z,26.59
2018-09-05T10:44:12.421Z,26.85
2018-09-05T10:46:42.336Z,27.19
2018-09-05T10:49:12.273Z,27.34
2018-09-05T10:51:47.418Z,27.55
2018-09-05T10:54:17.553Z,27.64
2018-09-05T10:56:47.268Z,27.74
2018-09-05T10:59:17.042Z,27.71
2018-09-05T11:01:47.313Z,27.80
2018-09-05T11:04:17.077Z,27.46
2018-09-05T11:06:47.438Z,27.12
2018-09-05T11:09:17.190Z,27.11
2018-09-05T11:11:47.026Z,26.63
2018-09-05T11:14:17.955Z,26.65
2018-09-05T11:16:47.976Z,26.73
2018-09-05T11:19:18.462Z,27.12
2018-09-05T11:21:48.202Z,27.59
2018-09-05T11:24:18.147Z,27.86
2018-09-05T11:26:48.133Z,27.98
2018-09-05T11:29:18.070Z,28.39
2018-09-05T11:31:48.332Z,28.79
2018-09-05T11:34:18.101Z,29.00
2018-09-05T11:36:48.081Z,28.77
2018-09-05T11:39:18.329Z,28.49
2018-09-05T11:41:48.084Z,27.56
2018-09-05T11:44:18.275Z,27.24
2018-09-05T11:46:48.119Z,26.97
2018-09-05T11:49:18.074Z,27.36
2018-09-05T11:51:48.060Z,27.91
2018-09-05T11:54:18.066Z,28.18
2018-09-05T11:56:48.925Z,28.48
2018-09-05T11:59:18.944Z,28.41
2018-09-05T12:01:49.063Z,28.61
2018-09-05T12:04:19.261Z,28.53
2018-09-05T12:06:49.132Z,28.02
2018-09-05T12:09:19.062Z,28.06
2018-09-05T12:11:49.113Z,28.18
2018-09-05T12:14:18.945Z,28.39
2018-09-05T12:16:49.225Z,28.58
2018-09-05T12:19:19.071Z,28.61
2018-09-05T12:21:49.045Z,28.85
2018-09-05T12:24:19.163Z,28.76
2018-09-05T12:26:49.370Z,28.23
2018-09-05T12:29:19.482Z,28.56
2018-09-05T12:31:49.277Z,28.75
2018-09-05T12:34:19.048Z,28.56
2018-09-05T12:36:49.321Z,28.25
2018-09-05T12:39:19.122Z,28.55
2018-09-05T12:41:49.085Z,28.49
2018-09-05T12:44:19.234Z,28.17
2018-09-05T12:46:49.085Z,28.23
2018-09-05T12:49:19.050Z,28.08
2018-09-05T12:51:49.141Z,28.16
2018-09-05T12:54:19.249Z,28.49
2018-09-05T12:56:49.133Z,28.81
2018-09-05T12:59:19.094Z,29.28
2018-09-05T13:01:49.093Z,29.09
2018-09-05T13:04:19.424Z,29.26
2018-09-05T13:06:49.256Z,28.83
2018-09-05T13:09:19.476Z,28.85
2018-09-05T13:11:49.202Z,29.26
2018-09-05T13:14:19.538Z,29.51
2018-09-05T13:16:49.366Z,29.30
2018-09-05T13:19:19.189Z,29.59
2018-09-05T13:21:49.151Z,29.37
2018-09-05T13:24:19.099Z,29.44
2018-09-05T13:26:49.085Z,29.57
2018-09-05T13:29:19.262Z,29.28
2018-09-05T13:31:49.303Z,29.08
2018-09-05T13:34:19.128Z,29.50
2018-09-05T13:36:49.230Z,29.68
2018-09-05T13:39:19.187Z,29.45
2018-09-05T13:41:49.461Z,29.43
2018-09-05T13:44:19.525Z,29.70
2018-09-05T13:46:49.739Z,29.93
2018-09-05T13:49:19.674Z,30.15
2018-09-05T13:51:54.499Z,29.87
2018-09-05T13:54:24.533Z,30.11
2018-09-05T13:56:54.292Z,30.24
2018-09-05T13:59:24.158Z,30.24
2018-09-05T14:01:54.097Z,30.36
2018-09-05T14:04:24.312Z,30.12
2018-09-05T14:06:54.904Z,30.10
2018-09-05T14:09:24.974Z,30.15
2018-09-05T14:12:57.748Z,29.71
2018-09-05T14:15:27.497Z,29.62
2018-09-05T14:17:57.552Z,29.96
2018-09-05T14:20:27.541Z,30.13
2018-09-05T14:22:57.520Z,30.03
2018-09-05T14:25:27.440Z,30.50
2018-09-05T14:27:57.159Z,30.34
2018-09-05T14:30:27.080Z,30.01
2018-09-05T14:32:56.886Z,29.79
2018-09-05T14:35:26.787Z,29.41
2018-09-05T14:37:56.817Z,29.40
2018-09-05T14:40:26.534Z,29.90
2018-09-05T14:42:56.220Z,29.64
2018-09-05T14:45:26.093Z,28.98
2018-09-05T14:47:55.998Z,29.14
2018-09-05T14:50:26.214Z,28.97
2018-09-05T14:52:56.046Z,28.72
2018-09-05T14:55:26.087Z,28.88
2018-09-05T14:57:56.271Z,29.01
2018-09-05T15:00:25.948Z,29.29
2018-09-05T15:02:55.987Z,29.33
2018-09-05T15:05:26.162Z,29.34
2018-09-05T15:07:56.011Z,28.85
2018-09-05T15:10:26.173Z,28.70
2018-09-05T15:12:55.965Z,28.83
2018-09-05T15:15:25.920Z,29.25
2018-09-05T15:17:55.985Z,29.47
2018-09-05T15:20:26.117Z,29.34
2018-09-05T15:22:56.021Z,29.53
2018-09-05T15:25:26.160Z,29.76
2018-09-05T15:27:56.019Z,29.65
2018-09-05T15:30:26.402Z,29.29
2018-09-05T15:32:56.100Z,29.28
2018-09-05T15:35:25.998Z,29.02
2018-09-05T15:37:56.117Z,29.07
2018-09-05T15:40:26.070Z,29.25
2018-09-05T15:42:56.085Z,29.14
2018-09-05T15:45:26.096Z,29.22
2018-09-05T15:47:56.226Z,28.34
2018-09-05T15:50:26.255Z,28.86
2018-09-05T15:52:56.246Z,29.01
2018-09-05T15:55:26.175Z,28.88
2018-09-05T15:57:55.964Z,28.92
2018-09-05T16:00:26.325Z,28.28
2018-09-05T16:02:56.032Z,28.08
2018-09-05T16:05:26.352Z,28.11
2018-09-05T16:07:56.126Z,27.41
2018-09-05T16:10:25.959Z,27.46
2018-09-05T16:12:56.117Z,27.75
2018-09-05T16:15:26.103Z,27.71
2018-09-05T16:17:56.053Z,27.46
2018-09-05T16:20:26.257Z,27.68
2018-09-05T16:22:55.956Z,27.74
2018-09-05T16:25:26.056Z,27.51
2018-09-05T16:27:56.062Z,27.29
2018-09-05T16:30:26.051Z,27.18
2018-09-05T16:32:56.032Z,27.34
2018-09-05T16:35:26.223Z,27.43
2018-09-05T16:37:56.337Z,27.44
2018-09-05T16:40:33.820Z,27.52
2018-09-05T16:43:03.607Z,27.48
2018-09-05T16:45:33.329Z,27.41
2018-09-05T16:48:03.048Z,27.45
2018-09-05T16:50:33.005Z,27.46
2018-09-05T16:53:03.137Z,27.44
2018-09-05T16:55:33.233Z,27.42
2018-09-05T16:58:03.029Z,27.37
2018-09-05T17:00:33.027Z,27.30
2018-09-05T17:03:03.061Z,27.23
2018-09-05T17:05:33.057Z,27.15
2018-09-05T17:08:03.321Z,27.12
2018-09-05T17:10:33.022Z,27.05
2018-09-05T17:13:03.179Z,26.96
2018-09-05T17:15:33.287Z,26.86
2018-09-05T17:18:03.297Z,26.73
2018-09-05T17:20:33.215Z,26.65
2018-09-05T17:23:02.914Z,26.52
2018-09-05T17:25:32.633Z,26.40
2018-09-05T17:28:02.805Z,26.31
2018-09-05T17:30:32.526Z,26.22
2018-09-05T17:33:02.848Z,26.12
2018-09-05T17:35:32.545Z,26.04
2018-09-05T17:38:02.901Z,25.96
2018-09-05T17:40:32.695Z,25.85
2018-09-05T17:43:02.403Z,25.74
2018-09-05T17:45:33.325Z,25.66
2018-09-05T17:48:04.027Z,25.49
2018-09-05T17:50:35.019Z,25.40
2018-09-05T17:53:05.770Z,25.31
2018-09-05T17:55:37.315Z,25.20
2018-09-05T17:58:08.137Z,25.11
2018-09-05T18:00:39.305Z,25.01
2018-09-05T18:03:10.097Z,24.90
2018-09-05T18:05:41.013Z,24.80
2018-09-05T18:08:11.879Z,24.76
2018-09-05T18:10:43.816Z,24.68
2018-09-05T18:13:14.097Z,24.59
2018-09-05T18:15:51.422Z,24.53
2018-09-05T18:18:22.150Z,24.46
2018-09-05T18:20:52.386Z,24.36
2018-09-05T18:23:22.146Z,24.29
2018-09-05T18:25:51.958Z,24.17
2018-09-05T18:28:22.201Z,24.04
2018-09-05T18:30:52.024Z,23.94
2018-09-05T18:33:21.913Z,23.85
2018-09-05T18:35:52.827Z,23.77
2018-09-05T18:38:24.402Z,23.62
2018-09-05T18:40:56.338Z,23.56
2018-09-05T18:43:26.344Z,23.44
2018-09-05T18:45:57.768Z,23.33
2018-09-05T18:48:28.380Z,23.28
2018-09-05T18:50:58.961Z,23.19
2018-09-05T18:53:29.870Z,23.13
2018-09-05T18:56:01.267Z,23.04
2018-09-05T18:58:32.746Z,22.96
2018-09-05T19:01:02.992Z,22.92
2018-09-05T19:03:33.861Z,22.78
2018-09-05T19:06:04.894Z,22.74
2018-09-05T19:08:37.014Z,22.68
2018-09-05T19:11:06.727Z,22.56
2018-09-05T19:13:38.156Z,22.46
2018-09-05T19:16:08.880Z,22.40
2018-09-05T19:18:45.748Z,22.32
2018-09-05T19:21:15.662Z,22.21
2018-09-05T19:23:45.505Z,22.14
2018-09-05T19:26:15.244Z,22.08
2018-09-05T19:28:44.957Z,22.02
2018-09-05T19:31:15.861Z,21.95
2018-09-05T19:33:45.836Z,21.85
2018-09-05T19:36:17.497Z,21.79
2018-09-05T19:38:48.080Z,21.70
2018-09-05T19:41:19.251Z,21.64
2018-09-05T19:43:50.161Z,21.62
2018-09-05T19:46:21.235Z,21.52
2018-09-05T19:48:52.402Z,21.47
2018-09-05T19:51:24.009Z,21.39
2018-09-05T19:53:54.049Z,21.32
2018-09-05T19:56:24.834Z,21.28
2018-09-05T19:58:56.452Z,21.26
2018-09-05T20:01:27.952Z,21.18
2018-09-05T20:03:59.996Z,21.11
2018-09-05T20:06:29.818Z,21.06
2018-09-05T20:09:00.458Z,21.06
2018-09-05T20:11:31.068Z,21.03
2018-09-05T20:14:02.537Z,21.13
2018-09-05T20:16:34.148Z,21.22
2018-09-05T20:19:04.164Z,21.27
2018-09-05T20:21:40.918Z,21.31
2018-09-05T20:24:11.001Z,21.37
2018-09-05T20:26:40.787Z,21.39
2018-09-05T20:29:10.621Z,21.41
2018-09-05T20:31:40.535Z,21.43
2018-09-05T20:34:10.815Z,21.43
2018-09-05T20:36:40.827Z,21.41
2018-09-05T20:39:12.248Z,21.35
2018-09-05T20:41:42.561Z,21.34
2018-09-05T20:44:19.496Z,21.29
2018-09-05T20:46:50.118Z,21.09
2018-09-05T20:49:19.881Z,20.89
2018-09-05T20:51:49.985Z,20.73
2018-09-05T20:54:19.849Z,20.55
2018-09-05T20:56:49.611Z,20.41
2018-09-05T20:59:19.616Z,20.27
2018-09-05T21:01:50.123Z,20.13
2018-09-05T21:04:21.059Z,20.06
2018-09-05T21:06:52.001Z,19.99
2018-09-05T21:09:23.148Z,19.90
2018-09-05T21:11:54.837Z,19.80
2018-09-05T21:14:25.268Z,19.74
2018-09-05T21:16:56.049Z,19.69
2018-09-05T21:19:27.661Z,19.65
2018-09-05T21:21:58.317Z,19.60
2018-09-05T21:24:29.351Z,19.52
2018-09-05T21:27:00.400Z,19.50
2018-09-05T21:29:31.095Z,19.46
2018-09-05T21:32:01.635Z,19.41
2018-09-05T21:34:32.206Z,19.33
2018-09-05T21:37:03.390Z,19.29
2018-09-05T21:39:34.162Z,19.18
2018-09-05T21:42:05.194Z,19.18
2018-09-05T21:44:36.587Z,19.14
2018-09-05T21:47:07.264Z,19.10
2018-09-05T21:49:38.118Z,19.07
2018-09-05T21:52:09.046Z,19.04
2018-09-05T21:54:39.845Z,19.00
2018-09-05T21:57:11.153Z,18.94
2018-09-05T21:59:42.350Z,18.88
2018-09-05T22:02:13.603Z,18.80
2018-09-05T22:04:44.141Z,18.82
2018-09-05T22:07:14.918Z,18.75
2018-09-05T22:09:47.020Z,18.70
2018-09-05T22:12:17.097Z,18.67
2018-09-05T22:14:48.475Z,18.63
2018-09-05T22:17:19.006Z,18.61
2018-09-05T22:19:49.991Z,18.57
2018-09-05T22:22:21.441Z,18.51
2018-09-05T22:24:52.373Z,18.46
2018-09-05T22:27:22.917Z,18.45
2018-09-05T22:29:56.130Z,18.39
2018-09-05T22:32:26.045Z,18.39
2018-09-05T22:34:55.931Z,18.37
2018-09-05T22:37:27.070Z,18.35
2018-09-05T22:39:57.921Z,18.31
2018-09-05T22:42:28.897Z,18.27
2018-09-05T22:45:10.248Z,18.23
2018-09-05T22:47:54.840Z,18.20
2018-09-05T22:51:36.725Z,18.17
2018-09-05T22:55:26.302Z,18.10
2018-09-05T22:59:04.166Z,18.03
2018-09-05T23:01:41.674Z,17.99
2018-09-05T23:05:27.045Z,17.97
2018-09-05T23:08:43.775Z,17.92
2018-09-05T23:11:24.082Z,17.89
2018-09-05T23:15:06.815Z,17.86
2018-09-05T23:18:47.201Z,17.82
2018-09-05T23:21:20.430Z,17.76
2018-09-05T23:23:55.434Z,17.73
2018-09-05T23:26:25.533Z,17.70
2018-09-05T23:28:55.368Z,17.69
2018-09-05T23:31:25.752Z,17.64
2018-09-05T23:33:55.953Z,17.60
2018-09-05T23:36:26.454Z,17.59
2018-09-05T23:38:56.280Z,17.55
2018-09-05T23:41:26.092Z,17.54
2018-09-05T23:43:56.134Z,17.50
2018-09-05T23:46:26.365Z,17.48
2018-09-05T23:48:56.289Z,17.46
2018-09-05T23:51:26.101Z,17.41
2018-09-05T23:53:56.122Z,17.39
2018-09-05T23:56:26.657Z,17.36
2018-09-05T23:58:56.438Z,17.33
